Rinconado, New Mexico
Current Conditions -  °F | °C
As of 1:15 PM on Monday 24 Nov 2014 (Local Time) from KLAM Reporting Station
Scattered Clouds Scattered Clouds  
Wind Chill: 27°   Ceiling: Unl
Heat Index: 32°   Visibility: 10mi
Dew Point:   Wind: 5mph
Humidity: 39%   Direction: 140°SE
Pressure: 30.05"   Gusts: NA
Location:  36.1441°N, 105.996°W
Report Text: KLAM 242015Z AUTO 14004KT 10SM SCT065 SCT080 00/M13 A3005 RMK AO2 T10011126
Loading
Personal Weather Stations






























Interactive Weather Map New forecast layout! Learn more

10-Day Weather Forecast

Advertisements
Track Severe Weather on mobile